Time;durP1;ratioP1;P1;durP2;ratioP2;P2;SDS_P1;SDS_P2;PMS_P1;PMS_P2;Temp;Humidity;BMP_temperature;BMP_pressure;BME280_temperature;BME280_humidity;BME280_pressure;Samples;Min_cycle;Max_cycle;Signal;HPM_P1;HPM_P2
2023/05/07 00:01:28;;;;;;;3.60;3.23;;;;;;;;;;5074164;28;20256;-92
2023/05/07 00:03:55;;;;;;;5.93;2.97;;;;;;;;;;5066799;28;20201;-91
2023/05/07 00:06:23;;;;;;;3.03;2.83;;;;;;;;;;5068104;28;20609;-91
2023/05/07 00:08:50;;;;;;;4.27;2.83;;;;;;;;;;5061437;28;20308;-91
2023/05/07 00:11:17;;;;;;;4.13;3.00;;;;;;;;;;5073268;28;20233;-90
2023/05/07 00:13:45;;;;;;;3.63;3.33;;;;;;;;;;5073538;28;20205;-91
2023/05/07 00:16:12;;;;;;;3.80;2.97;;;;;;;;;;5073872;28;20294;-91
2023/05/07 00:18:39;;;;;;;4.77;3.23;;;;;;;;;;5065930;28;20241;-92
2023/05/07 00:21:06;;;;;;;4.53;3.43;;;;;;;;;;5053999;28;20234;-91
2023/05/07 00:23:33;;;;;;;7.00;3.30;;;;;;;;;;5054675;28;20633;-91
2023/05/07 00:26:00;;;;;;;3.27;2.93;;;;;;;;;;5068482;28;20286;-90
2023/05/07 00:28:27;;;;;;;4.30;3.00;;;;;;;;;;5074123;28;20275;-92
2023/05/07 00:30:56;;;;;;;3.27;2.97;;;;;;;;;;5054877;28;20234;-91
2023/05/07 00:33:23;;;;;;;4.87;3.07;;;;;;;;;;5055397;28;20210;-92
2023/05/07 00:35:50;;;;;;;2.97;2.73;;;;;;;;;;5055664;28;20237;-91
2023/05/07 00:38:17;;;;;;;2.87;2.67;;;;;;;;;;5070680;28;20233;-92
2023/05/07 00:40:45;;;;;;;3.90;3.60;;;;;;;;;;5068230;28;20244;-91
2023/05/07 00:43:12;;;;;;;3.40;3.07;;;;;;;;;;5074660;28;20204;-91
2023/05/07 00:45:39;;;;;;;8.33;3.10;;;;;;;;;;5074370;28;20237;-91
2023/05/07 00:48:08;;;;;;;7.30;3.67;;;;;;;;;;5071575;28;20201;-91
2023/05/07 00:50:35;;;;;;;5.30;2.97;;;;;;;;;;5053826;28;20245;-91
2023/05/07 00:53:03;;;;;;;3.27;2.90;;;;;;;;;;5055228;28;20209;-91
2023/05/07 00:55:30;;;;;;;3.80;3.00;;;;;;;;;;5052160;28;20276;-91
2023/05/07 00:57:57;;;;;;;3.33;3.03;;;;;;;;;;5046060;28;20202;-91
2023/05/07 01:00:25;;;;;;;3.37;2.80;;;;;;;;;;5039047;28;20246;-92
2023/05/07 01:02:52;;;;;;;3.13;2.90;;;;;;;;;;5054744;28;20201;-91
2023/05/07 01:05:21;;;;;;;3.03;2.80;;;;;;;;;;5068148;28;20253;-91
2023/05/07 01:07:49;;;;;;;3.53;3.03;;;;;;;;;;5074366;28;20209;-92
2023/05/07 01:10:16;;;;;;;4.13;3.50;;;;;;;;;;5073956;28;20248;-91
2023/05/07 01:12:43;;;;;;;4.27;3.50;;;;;;;;;;5073823;28;20225;-91
2023/05/07 01:15:11;;;;;;;4.63;3.17;;;;;;;;;;5073282;28;20237;-91
2023/05/07 01:17:38;;;;;;;3.40;3.10;;;;;;;;;;5073697;28;20212;-91
2023/05/07 01:20:06;;;;;;;3.50;3.20;;;;;;;;;;5072285;28;20225;-91
2023/05/07 01:22:36;;;;;;;3.80;3.40;;;;;;;;;;5063017;28;20198;-91
2023/05/07 01:25:03;;;;;;;5.73;3.33;;;;;;;;;;5056463;28;20257;-91
2023/05/07 01:27:31;;;;;;;4.40;3.40;;;;;;;;;;5075018;28;20554;-90
2023/05/07 01:29:58;;;;;;;3.80;3.30;;;;;;;;;;5074027;28;20233;-91
2023/05/07 01:32:29;;;;;;;5.43;3.20;;;;;;;;;;5074456;28;20225;-91
2023/05/07 01:34:57;;;;;;;8.13;3.10;;;;;;;;;;5073821;28;20232;-91
2023/05/07 01:37:25;;;;;;;4.50;3.47;;;;;;;;;;5074413;28;20675;-91
2023/05/07 01:39:53;;;;;;;3.27;2.97;;;;;;;;;;5073900;28;20228;-91
2023/05/07 01:42:21;;;;;;;3.83;3.13;;;;;;;;;;5074526;28;20208;-91
2023/05/07 01:44:48;;;;;;;3.63;3.07;;;;;;;;;;5074035;28;20233;-91
2023/05/07 01:47:15;;;;;;;3.13;2.83;;;;;;;;;;5074825;28;20205;-90
2023/05/07 01:49:43;;;;;;;5.50;3.13;;;;;;;;;;5073459;28;20298;-91
2023/05/07 01:52:11;;;;;;;3.80;3.50;;;;;;;;;;5073742;28;20228;-91
2023/05/07 01:54:38;;;;;;;2.90;2.70;;;;;;;;;;5059592;28;20234;-91
2023/05/07 01:57:06;;;;;;;2.87;2.67;;;;;;;;;;5038012;28;20227;-91
2023/05/07 01:59:34;;;;;;;3.30;3.10;;;;;;;;;;5070561;28;20233;-91
2023/05/07 02:02:01;;;;;;;4.20;3.00;;;;;;;;;;5062274;28;20201;-91
2023/05/07 02:04:28;;;;;;;3.87;3.23;;;;;;;;;;5063910;28;20202;-91
2023/05/07 02:06:55;;;;;;;3.37;2.80;;;;;;;;;;5053961;28;20202;-91
2023/05/07 02:09:23;;;;;;;4.90;3.57;;;;;;;;;;5040955;28;20284;-91
2023/05/07 02:11:50;;;;;;;3.10;2.90;;;;;;;;;;5063168;28;20221;-92
2023/05/07 02:14:19;;;;;;;3.47;2.80;;;;;;;;;;5055961;28;20201;-90
2023/05/07 02:16:47;;;;;;;3.40;3.10;;;;;;;;;;5072952;28;20212;-92
2023/05/07 02:19:14;;;;;;;5.63;3.00;;;;;;;;;;5060936;28;20234;-86
2023/05/07 02:21:41;;;;;;;3.17;2.87;;;;;;;;;;5053463;28;20205;-91
2023/05/07 02:24:08;;;;;;;3.10;2.90;;;;;;;;;;5071131;28;20209;-90
2023/05/07 02:26:35;;;;;;;5.63;3.40;;;;;;;;;;5065488;28;20230;-91
2023/05/07 02:29:02;;;;;;;4.20;3.20;;;;;;;;;;5054042;28;20229;-90
2023/05/07 02:31:30;;;;;;;3.67;3.37;;;;;;;;;;5063188;28;20229;-90
2023/05/07 02:33:57;;;;;;;4.03;2.80;;;;;;;;;;5073595;28;20599;-91
2023/05/07 02:36:26;;;;;;;3.03;2.83;;;;;;;;;;5072152;28;20233;-91
2023/05/07 02:38:53;;;;;;;3.47;3.10;;;;;;;;;;5056459;28;20310;-90
2023/05/07 02:41:21;;;;;;;4.27;3.20;;;;;;;;;;5052433;28;20240;-91
2023/05/07 02:43:48;;;;;;;5.23;3.13;;;;;;;;;;5052499;28;20285;-91
2023/05/07 02:46:15;;;;;;;3.37;2.93;;;;;;;;;;5052195;28;20241;-91
2023/05/07 02:48:43;;;;;;;3.47;3.17;;;;;;;;;;5052312;28;20715;-91
2023/05/07 02:51:10;;;;;;;4.57;3.20;;;;;;;;;;5052143;28;20245;-91
2023/05/07 02:53:38;;;;;;;5.93;3.30;;;;;;;;;;5053406;28;20194;-91
2023/05/07 02:56:06;;;;;;;4.13;3.10;;;;;;;;;;5061447;28;20240;-91
2023/05/07 02:58:33;;;;;;;3.20;3.00;;;;;;;;;;5053323;28;20222;-91
2023/05/07 03:01:00;;;;;;;3.17;2.97;;;;;;;;;;5056300;28;20225;-91
2023/05/07 03:03:27;;;;;;;3.17;2.93;;;;;;;;;;5074001;28;20667;-92
2023/05/07 03:05:55;;;;;;;4.60;3.10;;;;;;;;;;5061736;28;20751;-91
2023/05/07 03:08:22;;;;;;;3.80;3.27;;;;;;;;;;5057120;28;20237;-91
2023/05/07 03:10:49;;;;;;;3.40;3.10;;;;;;;;;;5074876;28;20240;-91
2023/05/07 03:13:16;;;;;;;5.43;3.17;;;;;;;;;;5071105;28;20225;-92
2023/05/07 03:15:44;;;;;;;3.70;3.40;;;;;;;;;;5056707;28;20240;-90
2023/05/07 03:18:11;;;;;;;6.20;3.90;;;;;;;;;;5064237;28;20218;-91
2023/05/07 03:20:38;;;;;;;4.67;3.40;;;;;;;;;;5068185;28;20256;-91
2023/05/07 03:23:06;;;;;;;3.33;3.13;;;;;;;;;;5077357;28;20201;-91
2023/05/07 03:25:34;;;;;;;5.67;3.60;;;;;;;;;;5060353;28;20234;-91
2023/05/07 03:28:01;;;;;;;3.87;3.30;;;;;;;;;;5068697;28;20664;-91
2023/05/07 03:30:28;;;;;;;4.70;3.30;;;;;;;;;;5057522;28;20234;-91
2023/05/07 03:32:55;;;;;;;4.27;3.53;;;;;;;;;;5056572;28;20230;-91
2023/05/07 03:35:22;;;;;;;3.50;3.20;;;;;;;;;;5065570;28;20238;-91
2023/05/07 03:37:49;;;;;;;3.43;3.20;;;;;;;;;;5074897;28;20206;-91
2023/05/07 03:40:17;;;;;;;4.97;3.37;;;;;;;;;;5076146;28;20233;-85
2023/05/07 03:42:44;;;;;;;3.37;3.07;;;;;;;;;;5075066;28;20201;-85
2023/05/07 03:45:11;;;;;;;5.27;3.77;;;;;;;;;;5074258;28;20233;-85
2023/05/07 03:47:38;;;;;;;4.27;3.13;;;;;;;;;;5074501;28;20204;-85
2023/05/07 03:50:06;;;;;;;3.60;3.30;;;;;;;;;;5073664;28;20722;-85
2023/05/07 03:52:33;;;;;;;4.67;3.93;;;;;;;;;;5072757;28;20223;-85
2023/05/07 03:55:00;;;;;;;5.20;3.80;;;;;;;;;;5073724;28;20236;-85
2023/05/07 03:57:28;;;;;;;3.93;3.63;;;;;;;;;;5056773;28;20202;-85
2023/05/07 03:59:55;;;;;;;6.77;3.77;;;;;;;;;;5054524;28;20244;-85
2023/05/07 04:02:22;;;;;;;4.17;3.87;;;;;;;;;;5056015;28;20210;-84
2023/05/07 04:04:50;;;;;;;3.40;3.20;;;;;;;;;;5056776;28;20257;-85
2023/05/07 04:07:17;;;;;;;6.67;3.73;;;;;;;;;;5064549;28;20835;-85
2023/05/07 04:09:45;;;;;;;4.53;3.43;;;;;;;;;;5073385;28;20236;-85
2023/05/07 04:12:12;;;;;;;6.03;4.07;;;;;;;;;;5057446;28;20316;-84
2023/05/07 04:14:40;;;;;;;4.03;3.60;;;;;;;;;;5053613;28;20238;-84
2023/05/07 04:17:09;;;;;;;6.27;4.03;;;;;;;;;;5064065;28;20705;-84
2023/05/07 04:19:36;;;;;;;4.03;3.73;;;;;;;;;;5072706;28;20350;-85
2023/05/07 04:22:03;;;;;;;4.67;3.83;;;;;;;;;;5069465;28;20260;-84
2023/05/07 04:24:32;;;;;;;5.73;4.30;;;;;;;;;;5033433;28;20210;-84
2023/05/07 04:26:59;;;;;;;5.87;4.00;;;;;;;;;;5042799;28;20197;-84
2023/05/07 04:29:29;;;;;;;4.37;3.93;;;;;;;;;;5073332;28;20626;-85
2023/05/07 04:31:58;;;;;;;4.37;3.93;;;;;;;;;;5074234;28;20214;-84
2023/05/07 04:34:25;;;;;;;4.67;3.77;;;;;;;;;;5073395;28;20623;-85
2023/05/07 04:36:52;;;;;;;5.00;4.23;;;;;;;;;;5074067;28;20217;-84
2023/05/07 04:39:19;;;;;;;4.10;3.40;;;;;;;;;;5071037;28;20717;-85
2023/05/07 04:41:46;;;;;;;4.77;3.80;;;;;;;;;;5053327;28;20198;-84
2023/05/07 04:44:13;;;;;;;4.30;4.00;;;;;;;;;;5052958;28;20221;-86
2023/05/07 04:46:41;;;;;;;5.80;3.83;;;;;;;;;;5053635;28;20231;-84
2023/05/07 04:49:09;;;;;;;4.47;4.07;;;;;;;;;;5053394;28;20236;-84
2023/05/07 04:51:38;;;;;;;4.20;3.77;;;;;;;;;;5052877;28;20252;-84
2023/05/07 04:54:05;;;;;;;3.93;3.63;;;;;;;;;;5053337;28;20234;-85
2023/05/07 04:56:32;;;;;;;3.80;3.40;;;;;;;;;;5053118;28;20234;-85
2023/05/07 04:58:59;;;;;;;4.00;3.60;;;;;;;;;;5053784;28;20233;-85
2023/05/07 05:01:28;;;;;;;4.00;3.60;;;;;;;;;;5053115;28;20234;-85
2023/05/07 05:03:55;;;;;;;4.90;3.57;;;;;;;;;;5053151;28;20202;-85
2023/05/07 05:06:23;;;;;;;3.73;3.43;;;;;;;;;;5052726;28;20588;-85
2023/05/07 05:08:51;;;;;;;3.57;3.27;;;;;;;;;;5053452;28;20226;-85
2023/05/07 05:11:18;;;;;;;4.23;3.83;;;;;;;;;;5052677;28;20238;-85
2023/05/07 05:13:47;;;;;;;4.10;3.63;;;;;;;;;;5053171;28;20585;-86
2023/05/07 05:16:14;;;;;;;5.53;3.70;;;;;;;;;;5052676;28;20241;-86
2023/05/07 05:18:41;;;;;;;4.10;3.70;;;;;;;;;;5052804;28;20232;-85
2023/05/07 05:21:08;;;;;;;3.47;3.03;;;;;;;;;;5051281;28;20711;-85
2023/05/07 05:23:36;;;;;;;8.40;4.00;;;;;;;;;;5052248;28;20217;-86
2023/05/07 05:26:03;;;;;;;3.90;3.50;;;;;;;;;;5050891;28;20233;-85
2023/05/07 05:28:30;;;;;;;4.63;3.47;;;;;;;;;;5052435;28;20230;-85
2023/05/07 05:30:57;;;;;;;4.33;3.87;;;;;;;;;;5052027;28;20234;-85
2023/05/07 05:33:24;;;;;;;5.40;3.43;;;;;;;;;;5052574;28;20698;-85
2023/05/07 05:35:51;;;;;;;3.50;3.20;;;;;;;;;;5052033;28;20241;-85
2023/05/07 05:38:19;;;;;;;3.80;3.40;;;;;;;;;;5053309;28;20317;-85
2023/05/07 05:40:47;;;;;;;3.83;3.53;;;;;;;;;;5051850;28;20234;-85
2023/05/07 05:43:15;;;;;;;4.73;3.30;;;;;;;;;;5052581;28;20209;-85
2023/05/07 05:45:42;;;;;;;4.03;3.47;;;;;;;;;;5052343;28;20240;-85
2023/05/07 05:48:09;;;;;;;3.50;3.20;;;;;;;;;;5052322;28;20198;-85
2023/05/07 05:50:36;;;;;;;4.10;3.43;;;;;;;;;;5051900;28;20241;-85
2023/05/07 05:53:03;;;;;;;3.47;3.17;;;;;;;;;;5052815;28;20318;-85
2023/05/07 05:55:32;;;;;;;3.77;3.27;;;;;;;;;;5052222;28;20234;-86
2023/05/07 05:58:00;;;;;;;3.80;3.50;;;;;;;;;;5052446;28;20578;-85
2023/05/07 06:00:27;;;;;;;4.50;3.60;;;;;;;;;;5052126;28;20612;-85
2023/05/07 06:02:54;;;;;;;3.63;3.20;;;;;;;;;;5051979;28;20882;-85
2023/05/07 06:05:21;;;;;;;3.83;3.30;;;;;;;;;;5051778;28;20230;-84
2023/05/07 06:07:48;;;;;;;4.03;3.60;;;;;;;;;;5052170;28;20206;-84
2023/05/07 06:10:15;;;;;;;3.30;3.00;;;;;;;;;;5051634;28;20696;-84
2023/05/07 06:12:42;;;;;;;4.43;3.50;;;;;;;;;;5051563;28;20225;-84
2023/05/07 06:15:12;;;;;;;3.70;3.40;;;;;;;;;;5051742;28;20287;-86
2023/05/07 06:17:39;;;;;;;3.50;3.20;;;;;;;;;;5052210;28;20201;-85
2023/05/07 06:20:06;;;;;;;4.13;3.80;;;;;;;;;;5051249;28;20234;-85
2023/05/07 06:22:33;;;;;;;3.57;3.37;;;;;;;;;;5051685;28;20202;-84
2023/05/07 06:25:00;;;;;;;3.20;3.00;;;;;;;;;;5051300;28;20229;-85
2023/05/07 06:27:28;;;;;;;3.60;3.30;;;;;;;;;;5052135;28;20300;-85
2023/05/07 06:29:55;;;;;;;3.57;3.27;;;;;;;;;;5050969;28;20241;-85
2023/05/07 06:32:23;;;;;;;4.23;2.87;;;;;;;;;;5052024;28;20268;-84
2023/05/07 06:34:50;;;;;;;3.30;3.00;;;;;;;;;;5051141;28;20233;-85
2023/05/07 06:37:17;;;;;;;3.50;2.73;;;;;;;;;;5051804;28;20229;-85
2023/05/07 06:39:44;;;;;;;2.90;2.70;;;;;;;;;;5050849;28;20241;-85
2023/05/07 06:42:11;;;;;;;4.70;2.80;;;;;;;;;;5051609;28;20206;-85
2023/05/07 06:44:38;;;;;;;4.70;2.80;;;;;;;;;;5050889;28;20234;-85
2023/05/07 06:47:06;;;;;;;3.93;2.80;;;;;;;;;;5051704;28;20228;-85
2023/05/07 06:49:34;;;;;;;3.53;2.33;;;;;;;;;;5051123;28;20229;-85
2023/05/07 06:52:01;;;;;;;6.50;3.10;;;;;;;;;;5051991;28;20553;-85
2023/05/07 06:54:28;;;;;;;4.30;2.77;;;;;;;;;;5050685;28;20699;-85
2023/05/07 06:56:55;;;;;;;4.30;3.00;;;;;;;;;;5051739;28;20217;-85
2023/05/07 06:59:22;;;;;;;3.60;2.90;;;;;;;;;;5050977;28;20233;-85
2023/05/07 07:01:49;;;;;;;3.03;2.83;;;;;;;;;;5051805;28;20210;-85
2023/05/07 07:04:16;;;;;;;3.00;2.80;;;;;;;;;;5050710;28;20208;-85
2023/05/07 07:06:45;;;;;;;3.00;2.80;;;;;;;;;;5051195;28;20690;-85
2023/05/07 07:09:12;;;;;;;3.07;2.77;;;;;;;;;;5051188;28;20730;-85
2023/05/07 07:11:39;;;;;;;3.30;2.80;;;;;;;;;;5050849;28;20719;-85
2023/05/07 07:14:06;;;;;;;3.30;3.10;;;;;;;;;;5051402;28;20230;-85
2023/05/07 07:16:33;;;;;;;2.90;2.70;;;;;;;;;;5050912;28;20938;-85
2023/05/07 07:19:00;;;;;;;3.93;2.60;;;;;;;;;;5051035;28;20238;-85
2023/05/07 07:21:27;;;;;;;3.30;3.00;;;;;;;;;;5050761;28;20316;-85
2023/05/07 07:23:56;;;;;;;3.80;2.93;;;;;;;;;;5050973;28;20209;-84
2023/05/07 07:26:23;;;;;;;4.40;2.70;;;;;;;;;;5050643;28;20230;-85
2023/05/07 07:28:50;;;;;;;3.73;3.00;;;;;;;;;;5051524;28;20225;-85
2023/05/07 07:31:17;;;;;;;2.90;2.70;;;;;;;;;;5050751;28;20233;-85
2023/05/07 07:33:44;;;;;;;4.17;2.67;;;;;;;;;;5050897;28;20725;-85
2023/05/07 07:36:11;;;;;;;3.47;3.17;;;;;;;;;;5050918;28;20316;-85
2023/05/07 07:38:38;;;;;;;3.30;3.00;;;;;;;;;;5051207;28;20237;-85
2023/05/07 07:41:07;;;;;;;3.17;2.87;;;;;;;;;;5050394;28;20244;-85
2023/05/07 07:43:34;;;;;;;2.90;2.70;;;;;;;;;;5051475;28;20301;-85
2023/05/07 07:46:01;;;;;;;3.70;3.10;;;;;;;;;;5050423;28;20791;-85
2023/05/07 07:48:28;;;;;;;5.07;3.30;;;;;;;;;;5050835;28;20230;-85
2023/05/07 07:50:55;;;;;;;3.30;2.97;;;;;;;;;;5053607;28;20234;-85
2023/05/07 07:53:22;;;;;;;3.30;3.00;;;;;;;;;;5054735;28;20233;-85
2023/05/07 07:55:49;;;;;;;3.43;3.13;;;;;;;;;;5054478;28;20237;-86
2023/05/07 07:58:17;;;;;;;3.23;3.03;;;;;;;;;;5054754;28;20777;-85
2023/05/07 08:00:45;;;;;;;3.57;3.27;;;;;;;;;;5054277;28;20237;-85
2023/05/07 08:03:12;;;;;;;3.17;2.73;;;;;;;;;;5054129;28;20665;-85
2023/05/07 08:05:39;;;;;;;3.33;3.10;;;;;;;;;;5054297;28;20261;-84
2023/05/07 08:08:06;;;;;;;3.20;2.90;;;;;;;;;;5054471;28;20214;-85
2023/05/07 08:10:34;;;;;;;3.33;3.03;;;;;;;;;;5054040;28;20234;-85
2023/05/07 08:13:03;;;;;;;3.30;3.10;;;;;;;;;;5054161;28;20256;-85
2023/05/07 08:15:32;;;;;;;3.40;2.97;;;;;;;;;;5054068;28;20747;-85
2023/05/07 08:18:00;;;;;;;3.87;3.47;;;;;;;;;;5053959;28;20210;-84
2023/05/07 08:20:27;;;;;;;4.90;3.20;;;;;;;;;;5053589;28;20269;-85
2023/05/07 08:22:54;;;;;;;4.03;3.27;;;;;;;;;;5054270;28;20205;-85
2023/05/07 08:25:21;;;;;;;3.40;3.10;;;;;;;;;;5053679;28;20236;-85
2023/05/07 08:27:48;;;;;;;3.40;3.10;;;;;;;;;;5053892;28;20209;-85
2023/05/07 08:30:15;;;;;;;4.13;3.00;;;;;;;;;;5053411;28;20233;-85
2023/05/07 08:32:44;;;;;;;3.50;3.20;;;;;;;;;;5053746;28;20668;-85
2023/05/07 08:35:11;;;;;;;3.53;3.23;;;;;;;;;;5053095;28;20248;-86
2023/05/07 08:37:38;;;;;;;5.18;3.38;;;;;;;;;;5054073;28;20206;-84
2023/05/07 08:40:06;;;;;;;3.47;3.17;;;;;;;;;;5053344;28;20341;-84
2023/05/07 08:42:36;;;;;;;4.63;2.90;;;;;;;;;;5053665;28;20198;-85
2023/05/07 08:45:05;;;;;;;3.60;3.30;;;;;;;;;;5053446;28;20288;-84
2023/05/07 08:47:36;;;;;;;3.45;3.15;;;;;;;;;;5054021;28;20205;-84
2023/05/07 08:50:04;;;;;;;3.33;3.05;;;;;;;;;;5052800;28;20287;-84
2023/05/07 08:52:31;;;;;;;3.30;3.00;;;;;;;;;;5053342;28;20206;-84
2023/05/07 08:54:59;;;;;;;3.70;3.40;;;;;;;;;;5052718;28;20238;-85
2023/05/07 08:57:26;;;;;;;3.47;3.17;;;;;;;;;;5053374;28;20210;-84
2023/05/07 08:59:53;;;;;;;3.53;3.22;;;;;;;;;;5052985;28;20237;-85
2023/05/07 09:02:20;;;;;;;2.92;2.72;;;;;;;;;;5053445;28;20209;-84
2023/05/07 09:04:47;;;;;;;4.07;3.60;;;;;;;;;;5053127;28;20357;-85
2023/05/07 09:07:16;;;;;;;3.08;2.88;;;;;;;;;;5053194;28;20688;-84
2023/05/07 09:09:43;;;;;;;3.40;3.10;;;;;;;;;;5052373;28;20730;-85
2023/05/07 09:12:10;;;;;;;3.67;3.08;;;;;;;;;;5053146;28;20214;-85
2023/05/07 09:14:37;;;;;;;3.58;2.90;;;;;;;;;;5052289;28;20236;-84
2023/05/07 09:17:04;;;;;;;3.65;3.10;;;;;;;;;;5053164;28;20210;-85
2023/05/07 09:19:31;;;;;;;3.08;2.88;;;;;;;;;;5052499;28;20245;-85
2023/05/07 09:22:02;;;;;;;4.30;3.08;;;;;;;;;;5053414;28;20210;-86
2023/05/07 09:24:34;;;;;;;4.65;3.35;;;;;;;;;;5052722;28;20234;-86
2023/05/07 09:27:02;;;;;;;3.50;3.30;;;;;;;;;;5053009;28;20210;-85
2023/05/07 09:29:30;;;;;;;3.20;2.92;;;;;;;;;;5052520;28;20226;-85
2023/05/07 09:31:57;;;;;;;3.22;3.03;;;;;;;;;;5053254;28;20253;-85
2023/05/07 09:34:24;;;;;;;3.33;3.03;;;;;;;;;;5052014;28;20226;-85
2023/05/07 09:36:51;;;;;;;4.00;3.25;;;;;;;;;;5052657;28;20203;-85
2023/05/07 09:39:18;;;;;;;2.92;2.72;;;;;;;;;;5051954;28;20226;-85
2023/05/07 09:41:47;;;;;;;3.90;3.20;;;;;;;;;;5052768;28;20198;-86
2023/05/07 09:44:15;;;;;;;3.13;2.85;;;;;;;;;;5052154;28;20209;-84
2023/05/07 09:46:44;;;;;;;3.05;2.85;;;;;;;;;;5052580;28;20228;-82
2023/05/07 09:49:14;;;;;;;4.05;3.20;;;;;;;;;;5052108;28;20235;-81
2023/05/07 09:51:44;;;;;;;3.85;3.10;;;;;;;;;;5052131;28;20622;-82
2023/05/07 09:54:12;;;;;;;3.05;2.85;;;;;;;;;;5051810;28;20213;-81
2023/05/07 09:56:41;;;;;;;3.35;3.13;;;;;;;;;;5052121;28;20221;-82
2023/05/07 09:59:11;;;;;;;3.58;3.00;;;;;;;;;;5052248;28;20232;-82
2023/05/07 10:01:39;;;;;;;3.17;2.97;;;;;;;;;;5051537;28;20719;-82
2023/05/07 10:04:08;;;;;;;3.67;3.38;;;;;;;;;;5052025;28;20229;-81
2023/05/07 10:06:35;;;;;;;3.78;3.47;;;;;;;;;;5051320;28;20234;-83
2023/05/07 10:09:05;;;;;;;3.28;2.97;;;;;;;;;;5052006;28;20226;-82
2023/05/07 10:11:33;;;;;;;3.40;3.10;;;;;;;;;;5051136;28;20291;-82
2023/05/07 10:14:01;;;;;;;3.22;3.00;;;;;;;;;;5051612;28;20797;-82
2023/05/07 10:16:31;;;;;;;2.92;2.70;;;;;;;;;;5051256;28;20249;-82
2023/05/07 10:18:59;;;;;;;3.40;3.10;;;;;;;;;;5051770;28;20246;-82
2023/05/07 10:21:28;;;;;;;3.33;2.95;;;;;;;;;;5051485;28;20775;-82
2023/05/07 10:23:59;;;;;;;3.38;3.08;;;;;;;;;;5051722;28;20696;-83
2023/05/07 10:26:27;;;;;;;3.35;2.97;;;;;;;;;;5051326;28;20299;-82
2023/05/07 10:28:55;;;;;;;3.88;3.00;;;;;;;;;;5051708;28;20229;-82
2023/05/07 10:31:38;;;;;;;3.78;3.05;;;;;;;;;;5051219;28;20243;-82
2023/05/07 10:34:09;;;;;;;3.30;3.00;;;;;;;;;;5051268;28;20225;-82
2023/05/07 10:36:36;;;;;;;2.92;2.72;;;;;;;;;;5051119;28;20234;-83
2023/05/07 10:39:03;;;;;;;3.28;2.97;;;;;;;;;;5051578;28;20233;-82
2023/05/07 10:41:30;;;;;;;2.90;2.70;;;;;;;;;;5051142;28;20241;-83
2023/05/07 10:44:01;;;;;;;3.10;2.90;;;;;;;;;;5051557;28;20206;-82
2023/05/07 10:46:28;;;;;;;4.57;2.88;;;;;;;;;;5051118;28;20241;-84
2023/05/07 10:49:16;;;;;;;2.80;2.60;;;;;;;;;;5051519;28;20229;-83
2023/05/07 10:51:45;;;;;;;3.10;2.80;;;;;;;;;;5051723;28;20230;-84
2023/05/07 10:54:22;;;;;;;3.10;2.80;;;;;;;;;;5051456;28;20257;-83
2023/05/07 10:56:50;;;;;;;5.57;2.85;;;;;;;;;;5051461;28;20220;-84
2023/05/07 10:59:41;;;;;;;3.50;2.90;;;;;;;;;;5051010;28;20861;-83
2023/05/07 11:02:09;;;;;;;3.00;2.58;;;;;;;;;;5051372;28;20564;-83
2023/05/07 11:04:38;;;;;;;3.30;3.00;;;;;;;;;;5050991;28;20233;-83
2023/05/07 11:07:22;;;;;;;3.40;3.10;;;;;;;;;;5051187;28;20766;-82
2023/05/07 11:09:58;;;;;;;2.90;2.60;;;;;;;;;;5050786;28;20230;-83
2023/05/07 11:12:40;;;;;;;2.58;2.38;;;;;;;;;;5050734;28;20651;-82
2023/05/07 11:15:08;;;;;;;2.63;2.42;;;;;;;;;;5050131;28;20579;-83
2023/05/07 11:17:35;;;;;;;2.60;2.47;;;;;;;;;;5051296;28;20210;-83
2023/05/07 11:20:05;;;;;;;2.60;2.20;;;;;;;;;;5050512;28;20614;-83
2023/05/07 11:22:39;;;;;;;2.40;2.20;;;;;;;;;;5051153;28;20287;-83
2023/05/07 11:25:07;;;;;;;2.50;2.30;;;;;;;;;;5052713;28;20240;-83
2023/05/07 11:27:34;;;;;;;2.55;2.28;;;;;;;;;;5055251;28;20202;-84
2023/05/07 11:30:01;;;;;;;2.50;2.30;;;;;;;;;;5054341;28;20240;-83
2023/05/07 11:32:29;;;;;;;2.60;2.40;;;;;;;;;;5055212;28;20206;-83
2023/05/07 11:34:57;;;;;;;2.92;2.60;;;;;;;;;;5054003;28;20244;-83
2023/05/07 11:37:26;;;;;;;2.45;2.25;;;;;;;;;;5054828;28;20214;-83
2023/05/07 11:40:03;;;;;;;2.58;2.38;;;;;;;;;;5054341;28;20241;-84
2023/05/07 11:42:32;;;;;;;3.00;2.40;;;;;;;;;;5054634;28;20675;-84
2023/05/07 11:44:59;;;;;;;2.58;2.38;;;;;;;;;;5054570;28;20240;-84
2023/05/07 11:47:26;;;;;;;2.70;2.25;;;;;;;;;;5054755;28;20217;-85
2023/05/07 11:49:54;;;;;;;2.50;2.30;;;;;;;;;;5054068;28;20237;-84
2023/05/07 11:52:23;;;;;;;4.03;2.55;;;;;;;;;;5054666;28;20591;-84
2023/05/07 11:54:52;;;;;;;2.40;2.20;;;;;;;;;;5054367;28;20237;-84
2023/05/07 11:57:19;;;;;;;2.25;1.90;;;;;;;;;;5054565;28;20214;-83
2023/05/07 11:59:47;;;;;;;3.38;2.30;;;;;;;;;;5053877;28;20233;-84
2023/05/07 12:02:15;;;;;;;2.30;2.10;;;;;;;;;;5054302;28;20233;-83
2023/05/07 12:04:42;;;;;;;3.08;2.42;;;;;;;;;;5053815;28;20222;-83
2023/05/07 12:07:13;;;;;;;4.60;2.67;;;;;;;;;;5054211;28;20673;-83
2023/05/07 12:09:40;;;;;;;3.42;2.30;;;;;;;;;;5054149;28;20261;-83
2023/05/07 12:12:09;;;;;;;2.50;2.30;;;;;;;;;;5054151;28;20214;-83
2023/05/07 12:14:38;;;;;;;2.20;2.10;;;;;;;;;;5053593;28;20234;-83
2023/05/07 12:17:06;;;;;;;3.95;2.92;;;;;;;;;;5053803;28;20209;-84
2023/05/07 12:19:33;;;;;;;3.65;2.50;;;;;;;;;;5053344;28;20244;-83
2023/05/07 12:22:00;;;;;;;2.30;2.10;;;;;;;;;;5053873;28;20213;-83
2023/05/07 12:24:27;;;;;;;2.15;1.95;;;;;;;;;;5053477;28;20205;-84
2023/05/07 12:26:54;;;;;;;3.08;1.90;;;;;;;;;;5053936;28;20206;-83
2023/05/07 12:29:24;;;;;;;2.15;1.95;;;;;;;;;;5053456;28;20261;-83
2023/05/07 12:31:51;;;;;;;2.88;2.10;;;;;;;;;;5054111;28;20267;-83
2023/05/07 12:34:18;;;;;;;2.30;2.10;;;;;;;;;;5053034;28;20225;-84
2023/05/07 12:36:45;;;;;;;2.08;1.98;;;;;;;;;;5053612;28;20213;-84
2023/05/07 12:39:12;;;;;;;3.08;1.85;;;;;;;;;;5053657;28;20455;-84
2023/05/07 12:41:54;;;;;;;2.47;2.28;;;;;;;;;;5053687;28;20226;-84
2023/05/07 12:44:21;;;;;;;1.75;1.65;;;;;;;;;;5052884;28;20652;-83
2023/05/07 12:46:49;;;;;;;1.67;1.58;;;;;;;;;;5053909;28;20206;-84
2023/05/07 12:49:17;;;;;;;1.70;1.60;;;;;;;;;;5053116;28;20229;-84
2023/05/07 12:51:44;;;;;;;1.58;1.48;;;;;;;;;;5053689;28;20209;-83
2023/05/07 12:54:11;;;;;;;2.38;1.77;;;;;;;;;;5053279;28;20206;-84
2023/05/07 12:56:39;;;;;;;2.40;2.00;;;;;;;;;;5052795;28;20272;-84
2023/05/07 12:59:06;;;;;;;1.77;1.67;;;;;;;;;;5053642;28;20597;-84
2023/05/07 13:01:35;;;;;;;2.00;1.63;;;;;;;;;;5052850;28;20245;-84
2023/05/07 13:04:05;;;;;;;2.55;1.90;;;;;;;;;;5053328;28;20233;-84
2023/05/07 13:06:32;;;;;;;1.65;1.55;;;;;;;;;;5052775;28;20229;-84
2023/05/07 13:08:59;;;;;;;1.80;1.70;;;;;;;;;;5053122;28;20712;-84
2023/05/07 13:11:26;;;;;;;2.03;1.65;;;;;;;;;;5052529;28;20233;-84
2023/05/07 13:13:53;;;;;;;1.98;1.48;;;;;;;;;;5053053;28;20213;-84
2023/05/07 13:16:20;;;;;;;1.23;1.23;;;;;;;;;;5052320;28;20238;-84
2023/05/07 13:18:47;;;;;;;3.20;1.73;;;;;;;;;;5052950;28;20241;-84
2023/05/07 13:21:16;;;;;;;4.32;1.65;;;;;;;;;;5052349;28;20237;-84
2023/05/07 13:23:43;;;;;;;3.17;1.88;;;;;;;;;;5052925;28;20212;-83
2023/05/07 13:26:10;;;;;;;2.47;1.70;;;;;;;;;;5052310;28;20233;-83
2023/05/07 13:28:37;;;;;;;1.80;1.70;;;;;;;;;;5052828;28;20226;-84
2023/05/07 13:31:04;;;;;;;2.25;1.55;;;;;;;;;;5052187;28;20238;-84
2023/05/07 13:33:31;;;;;;;1.60;1.50;;;;;;;;;;5052737;28;20205;-83
2023/05/07 13:36:00;;;;;;;3.17;2.15;;;;;;;;;;5052290;28;20237;-84
2023/05/07 13:38:28;;;;;;;1.60;1.50;;;;;;;;;;5052792;28;20287;-83
2023/05/07 13:40:55;;;;;;;2.97;1.65;;;;;;;;;;5052351;28;20237;-83
2023/05/07 13:43:22;;;;;;;2.00;1.90;;;;;;;;;;5052253;28;20209;-84
2023/05/07 13:45:49;;;;;;;1.80;1.70;;;;;;;;;;5052206;28;20260;-83
2023/05/07 13:48:16;;;;;;;1.60;1.50;;;;;;;;;;5051618;28;20229;-86
2023/05/07 13:50:44;;;;;;;1.60;1.50;;;;;;;;;;5070301;28;20357;-83
2023/05/07 13:53:11;;;;;;;2.55;1.90;;;;;;;;;;5072224;28;20201;-83
2023/05/07 13:55:39;;;;;;;1.80;1.70;;;;;;;;;;5071773;28;20914;-83
2023/05/07 13:58:06;;;;;;;2.20;2.00;;;;;;;;;;5069685;28;20201;-83
2023/05/07 14:00:33;;;;;;;2.45;1.95;;;;;;;;;;5051532;28;20242;-84
2023/05/07 14:03:00;;;;;;;2.78;1.75;;;;;;;;;;5051878;28;20613;-83
2023/05/07 14:05:27;;;;;;;1.88;1.75;;;;;;;;;;5051376;28;20229;-83
2023/05/07 14:07:55;;;;;;;2.38;1.70;;;;;;;;;;5052232;28;20217;-83
2023/05/07 14:10:22;;;;;;;3.13;1.95;;;;;;;;;;5051740;28;20233;-83
2023/05/07 14:12:50;;;;;;;1.90;1.70;;;;;;;;;;5052094;28;20641;-83
2023/05/07 14:15:17;;;;;;;2.00;1.90;;;;;;;;;;5051599;28;20242;-83
2023/05/07 14:17:45;;;;;;;1.77;1.67;;;;;;;;;;5057027;28;20200;-84
2023/05/07 14:20:12;;;;;;;1.73;1.60;;;;;;;;;;5071343;28;20659;-84
2023/05/07 14:22:39;;;;;;;2.05;1.90;;;;;;;;;;5071870;28;20209;-83
2023/05/07 14:25:07;;;;;;;3.55;1.80;;;;;;;;;;5071379;28;20232;-84
2023/05/07 14:27:34;;;;;;;1.73;1.63;;;;;;;;;;5071866;28;20204;-83
2023/05/07 14:30:02;;;;;;;2.50;1.85;;;;;;;;;;5069786;28;20229;-83
2023/05/07 14:32:29;;;;;;;4.72;1.83;;;;;;;;;;5051606;28;20272;-83
2023/05/07 14:34:56;;;;;;;2.55;1.65;;;;;;;;;;5050818;28;20233;-83
2023/05/07 14:37:24;;;;;;;1.88;1.77;;;;;;;;;;5067567;28;20201;-83
2023/05/07 14:39:51;;;;;;;3.75;1.80;;;;;;;;;;5071281;28;20311;-83
2023/05/07 14:42:18;;;;;;;2.13;1.90;;;;;;;;;;5059440;28;20198;-83
2023/05/07 14:44:46;;;;;;;2.53;1.80;;;;;;;;;;5060713;28;20233;-83
2023/05/07 14:47:15;;;;;;;3.83;2.00;;;;;;;;;;5071861;28;20294;-83